Flight Track Log - Related Links

Times and Time Zones

All times are in EDT time to prevent confusion due to time zone crossing. See the UAL3818 flight status page for this flight to view local times or setup timezone preferences in your user account.

Time Position Orientation Groundspeed Altitude Reporting Facility
EDT Latitude Longitude Course Direction KTS MPH feet Rate Location/Type
Tue 11:22:00 PM 42.0333 -87.8833 80° East 192 221 3,900  Level Chicago TRACON
Tue 11:23:43 PM 42.1256 -87.7903 37° Northeast 252 290 5,100 1,244 Climbing Chicago Center
Tue 11:24:00 PM 42.0497 -87.3698 83° East  Level FlightAware Approximate
Tue 11:24:44 PM 42.1572 -87.6936 66° East 284 327 7,300  Level Chicago Center
Tue 11:25:00 PM 42.0703 -87.2351 78° East  Level FlightAware Approximate
Tue 11:25:45 PM 42.1700 -87.5914 80° East 286 329 10,300  Level Chicago Center
Tue 11:26:00 PM 42.0916 -87.1005 77° East  Level FlightAware Approximate
Tue 11:26:46 PM 42.1594 -87.4825 97° East 294 338 13,000  Level Chicago Center
Tue 11:27:00 PM 42.1038 -86.9700 80° East  Level FlightAware Approximate
Tue 11:27:47 PM 42.1469 -87.3742 99° East 294 338 15,300  Level Chicago Center
Tue 11:28:48 PM 42.1342 -87.2583 98° East 309 356 17,400 2,213 Climbing Chicago Center
Tue 11:29:49 PM 42.1181 -87.1161 99° East 320 368 19,800 2,213 Climbing Chicago Center
Tue 11:30:50 PM 42.1161 -86.9886 91° East 347 399 21,900 2,066 Climbing Chicago Center
Tue 11:31:51 PM 42.1203 -86.8547 88° East 358 412 24,000 1,512 Climbing Chicago Center
Tue 11:32:53 PM 42.1256 -86.7175 87° East 366 421 25,000 488 Climbing Chicago Center
Tue 11:33:54 PM 42.1294 -86.5503 88° East 434 499 25,000  Level Chicago Center
Tue 11:34:55 PM 42.1350 -86.3728 88° East 467 537 25,000  Level Chicago Center
Tue 11:35:56 PM 42.1419 -86.1833 87° East 499 574 25,000  Level Chicago Center
Tue 11:36:57 PM 42.1403 -85.9897 91° East 512 589 25,000  Level Chicago Center
Tue 11:37:58 PM 42.1350 -85.8169 92° East 508 585 25,000  Level Chicago Center
Tue 11:38:59 PM 42.1294 -85.5892 92° East 509 586 25,000  Level Chicago Center
Tue 11:40:00 PM 42.1231 -85.4022 93° East 505 581 25,000  Level Chicago Center
Tue 11:40:38 PM 42.1239 -85.2956 89° East 519 597 25,000  Level Cleveland Center
Tue 11:41:38 PM 42.1167 -85.1103 93° East 514 592 25,000  Level Cleveland Center
Tue 11:42:38 PM 42.1114 -84.9222 92° East 508 585 25,000  Level Cleveland Center
Tue 11:43:38 PM 42.1039 -84.7311 93° East 508 585 25,000  Level Cleveland Center
Tue 11:44:38 PM 42.0958 -84.5458 93° East 500 575 25,000  Level Cleveland Center
Tue 11:45:38 PM 42.0897 -84.3553 92° East 505 581 25,000 -100 Level Cleveland Center
Tue 11:46:38 PM 42.0756 -84.1472 95° East 505 581 24,800 -500 Descending Cleveland Center
Tue 11:47:38 PM 42.0686 -83.9622 93° East 500 575 24,000 -400 Descending Cleveland Center
Tue 11:48:38 PM 42.0614 -83.7772 93° East 500 575 24,000  Level Cleveland Center
Tue 11:49:38 PM 42.0539 -83.5950 93° East 500 575 24,000 -250 Level Cleveland Center
Tue 11:50:38 PM 42.0433 -83.4297 95° East 500 575 23,500 -900 Descending Cleveland Center
Tue 11:51:38 PM 42.0269 -83.2500 97° East 495 570 22,200 -1,200 Descending Cleveland Center
Tue 11:52:38 PM 42.0100 -83.0703 97° East 490 564 21,100 -1,300 Descending Cleveland Center
Tue 11:53:38 PM 41.9908 -82.8992 99° East 478 550 19,600 -1,800 Descending Cleveland Center
Tue 11:54:38 PM 41.9753 -82.7253 97° East 472 543 17,500 -2,341 Descending Cleveland Center
Tue 11:55:00 PM 41.9664 -82.6469 99° East 466 536 16,400 -2,600 Descending Cleveland Center
Tue 11:55:38 PM 41.9533 -82.5572 101° East 461 531 14,900 -2,557 Descending Cleveland Center
Tue 11:56:01 PM 41.9378 -82.4925 108° East 426 490 13,800 -2,400 Descending Cleveland Center
Tue 11:56:38 PM 41.9139 -82.4164 113° Southeast 432 497 12,500 -2,600 Descending Cleveland Center
Tue 11:57:01 PM 41.8919 -82.3544 115° Southeast 391 450 11,200 -1,900 Descending Cleveland Center
Tue 11:57:38 PM 41.8658 -82.2925 119° Southeast 377 434 10,600 -984 Descending Cleveland Center
Tue 11:58:02 PM 41.8394 -82.2497 130° Southeast 319 367 10,200 -1,100 Descending Cleveland Center
Tue 11:58:38 PM 41.8089 -82.2072 134° Southeast 352 405 9,500 -1,600 Descending Cleveland Center
Tue 11:59:02 PM 41.7822 -82.1703 134° Southeast 285 328 8,600 -1,900 Descending Cleveland Center
Tue 11:59:38 PM 41.7494 -82.1167 129° Southeast 301 346 7,600 -1,672 Descending Cleveland Center
Wed 12:00:03 AM 41.7311 -82.0911 134° Southeast 279 321 6,900 -1,800 Descending Cleveland Center
Wed 12:00:38 AM 41.7006 -82.0433 131° Southeast 274 315 5,800 -1,770 Descending Cleveland Center
Wed 12:01:04 AM 41.6781 -82.0150 137° Southeast 262 302 5,100 -1,400 Descending Cleveland Center
Wed 12:01:38 AM 41.6578 -81.9672 120° Southeast 262 302 4,400 -1,000 Descending Cleveland Center
Wed 12:02:04 AM 41.6414 -81.9336 123° Southeast 261 300 4,100 -400 Descending Cleveland Center
Wed 12:02:38 AM 41.6231 -81.8942 122° Southeast 257 296 4,000 -492 Descending Cleveland Center
Wed 12:03:05 AM 41.5964 -81.8492 128° Southeast 268 308 3,600 -900 Descending Cleveland Center
Wed 12:03:38 AM 41.5781 -81.8211 131° Southeast 262 302 3,100 -600 Descending Cleveland Center
Wed 12:04:05 AM 41.5472 -81.7900 143° Southeast 248 285 3,000 -200 Descending Cleveland Center
Wed 12:04:38 AM 41.5222 -81.7703 149° Southeast 247 284 2,900 -182 Descending Cleveland Center

Login

Don't have an account? Register now (free) for customized features, flight alerts, and more!